Main page
METAR-TAF:

METAR-TAF

Airports :

Ras al-Khaimah, United Arab Emirates

Ras Al Khaimah International Airport

latitude: 25-37N, longitude: 055-56E, elevation: 31 m

Current weather observation

The report was made 21 minutes ago, at 17:00 UTC
Wind 2 kt from the North
Temperature 34°C
Humidity 60%
Pressure 1000 hPa
Visibility 10 km or more
no clouds below 1500 m and no cumulonimbus

METAR: OMRK 231700Z 35002KT CAVOK 34/25 Q0999 A2952

Time: 21:21 (17:21 UTC)

Forecast

The report was made 6 hours and 21 minutes ago, at 11:00 UTC
Forecast valid from 23 at 12 UTC to 24 at 18 UTC
Wind 12 kt from the North/Northwest
Visibility 10 km or more
no clouds below 1500 m and no cumulonimbus
Becoming
from 23 at 15 UTC to 23 at 17 UTC
Wind 5 kt from the South
Becoming
from 24 at 07 UTC to 24 at 09 UTC
Wind 13 kt from the Northwest
Becoming
from 24 at 15 UTC to 24 at 17 UTC
Wind 2 kt from variable directions

TAF: OMRK 231100Z 2312/2418 33012KT CAVOK BECMG 2315/2317 18005KT BECMG 2407/2409 32013KT BECMG 2415/2417 VRB02KT

Weather observations and forecasts of more than 4000 airports (METAR and TAF reports).

The available stations are represented by yellow and red dots on the map.

Hover mouse over dot to see the name of the station.

Then click to see weather observations and forecasts.

To change the map : click on the green buttons with a black cross to zoom in, on the green button with a dash to zoom out, or on the green arrows for adjacent maps.


METAR-TAF: